createdAt,value
2022-12-31T00:01:46.089Z,26.23
2022-12-31T00:04:13.872Z,25.33
2022-12-31T00:06:41.649Z,25.20
2022-12-31T00:09:09.966Z,24.90
2022-12-31T00:11:38.379Z,25.33
2022-12-31T00:14:07.887Z,25.83
2022-12-31T00:16:37.653Z,25.07
2022-12-31T00:19:06.832Z,24.07
2022-12-31T00:21:35.316Z,24.30
2022-12-31T00:24:03.775Z,23.87
2022-12-31T00:26:33.190Z,24.63
2022-12-31T00:29:02.062Z,24.57
2022-12-31T00:31:33.058Z,23.60
2022-12-31T00:34:01.122Z,25.03
2022-12-31T00:36:30.778Z,24.33
2022-12-31T00:39:02.441Z,23.67
2022-12-31T00:41:30.600Z,22.73
2022-12-31T00:43:58.537Z,25.10
2022-12-31T00:46:26.561Z,23.80
2022-12-31T00:48:56.059Z,25.00
2022-12-31T00:51:27.304Z,24.97
2022-12-31T00:53:55.602Z,23.60
2022-12-31T00:56:24.744Z,25.17
2022-12-31T00:58:52.998Z,25.53
2022-12-31T01:01:22.866Z,25.33
2022-12-31T01:03:52.888Z,26.63
2022-12-31T01:06:22.336Z,24.37
2022-12-31T01:08:51.079Z,24.50
2022-12-31T01:11:23.121Z,24.70
2022-12-31T01:13:52.836Z,24.00
2022-12-31T01:16:22.274Z,25.03
2022-12-31T01:18:50.521Z,25.07
2022-12-31T01:21:19.508Z,25.20
2022-12-31T01:23:49.046Z,25.47
2022-12-31T01:26:18.148Z,25.77
2022-12-31T01:28:46.174Z,27.10
2022-12-31T01:31:15.838Z,25.33
2022-12-31T01:33:44.387Z,24.57
2022-12-31T01:36:13.929Z,24.70
2022-12-31T01:38:42.171Z,24.87
2022-12-31T01:41:12.744Z,24.67
2022-12-31T01:43:46.617Z,25.27
2022-12-31T01:46:19.475Z,25.80
2022-12-31T01:48:49.056Z,24.63
2022-12-31T01:51:16.942Z,24.87
2022-12-31T01:53:45.288Z,26.20
2022-12-31T01:56:14.564Z,25.50
2022-12-31T01:58:45.048Z,26.30
2022-12-31T02:01:15.861Z,24.80
2022-12-31T02:03:43.961Z,26.20
2022-12-31T02:06:18.328Z,24.43
2022-12-31T02:08:46.287Z,24.00
2022-12-31T02:11:27.439Z,24.73
2022-12-31T02:13:58.788Z,23.87
2022-12-31T02:16:32.970Z,23.23
2022-12-31T02:19:07.074Z,24.17
2022-12-31T02:21:48.171Z,24.93
2022-12-31T02:25:06.638Z,24.60
2022-12-31T02:27:43.409Z,22.93
2022-12-31T02:30:14.908Z,23.37
2022-12-31T02:32:50.357Z,24.77
2022-12-31T02:35:24.071Z,24.03
2022-12-31T02:37:54.868Z,24.97
2022-12-31T02:40:23.607Z,22.57
2022-12-31T02:42:55.376Z,23.97
2022-12-31T02:45:28.939Z,23.53
2022-12-31T02:48:07.560Z,24.87
2022-12-31T02:50:55.278Z,23.93
2022-12-31T02:53:31.700Z,24.70
2022-12-31T02:56:04.207Z,22.87
2022-12-31T02:58:48.803Z,23.87
2022-12-31T03:01:40.145Z,23.27
2022-12-31T03:04:21.894Z,22.87
2022-12-31T03:06:49.894Z,22.97
2022-12-31T03:09:17.718Z,24.63
2022-12-31T03:12:03.131Z,23.17
2022-12-31T03:14:30.851Z,21.97
2022-12-31T03:16:59.941Z,23.43
2022-12-31T03:19:45.337Z,24.07
2022-12-31T03:22:28.742Z,22.13
2022-12-31T03:25:16.372Z,22.53
2022-12-31T03:27:44.646Z,22.67
2022-12-31T03:30:14.129Z,23.83
2022-12-31T03:32:43.876Z,23.57
2022-12-31T03:35:13.130Z,24.07
2022-12-31T03:37:41.239Z,23.63
2022-12-31T03:40:11.291Z,24.43
2022-12-31T03:42:39.101Z,23.67
2022-12-31T03:45:08.334Z,23.70
2022-12-31T03:47:36.368Z,22.60
2022-12-31T03:50:06.388Z,23.87
2022-12-31T03:52:34.287Z,23.40
2022-12-31T03:55:02.685Z,23.57
2022-12-31T03:57:30.563Z,24.47
2022-12-31T03:59:58.503Z,25.37
2022-12-31T04:02:29.108Z,23.20
2022-12-31T04:04:57.334Z,24.27
2022-12-31T04:07:26.491Z,24.37
2022-12-31T04:09:54.249Z,24.10
2022-12-31T04:12:22.019Z,23.10
2022-12-31T04:14:49.803Z,23.77
2022-12-31T04:17:17.547Z,25.50
2022-12-31T04:19:45.283Z,23.60
2022-12-31T04:22:13.053Z,24.27
2022-12-31T04:24:42.812Z,25.10
2022-12-31T04:27:10.557Z,23.73
2022-12-31T04:29:38.536Z,24.80
2022-12-31T04:32:07.377Z,24.60
2022-12-31T04:34:35.646Z,25.77
2022-12-31T04:37:03.797Z,23.80
2022-12-31T04:39:31.692Z,26.97
2022-12-31T04:42:00.807Z,26.13
2022-12-31T04:44:28.714Z,25.50
2022-12-31T04:46:56.481Z,25.60
2022-12-31T04:49:24.509Z,25.80
2022-12-31T04:51:52.255Z,25.53
2022-12-31T04:54:20.043Z,27.60
2022-12-31T04:56:47.770Z,26.70
2022-12-31T04:59:16.910Z,27.57
2022-12-31T05:01:44.758Z,27.73
2022-12-31T05:04:12.603Z,27.90
2022-12-31T05:06:40.385Z,28.70
2022-12-31T05:09:08.130Z,27.50
2022-12-31T05:11:37.866Z,27.97
2022-12-31T05:14:05.678Z,29.43
2022-12-31T05:16:34.844Z,30.80
2022-12-31T05:19:02.647Z,31.77
2022-12-31T05:21:30.359Z,31.00
2022-12-31T05:23:58.098Z,32.57
2022-12-31T05:26:25.885Z,31.47
2022-12-31T05:28:55.272Z,31.83
2022-12-31T05:31:23.159Z,30.07
2022-12-31T05:33:52.454Z,30.77
2022-12-31T05:36:20.163Z,29.73
2022-12-31T05:38:47.951Z,30.23
2022-12-31T05:41:15.714Z,31.43
2022-12-31T05:43:43.522Z,29.57
2022-12-31T05:46:11.297Z,30.77
2022-12-31T05:48:39.121Z,30.93
2022-12-31T05:51:08.366Z,29.57
2022-12-31T05:53:36.110Z,29.10
2022-12-31T05:56:03.828Z,30.17
2022-12-31T05:58:31.588Z,27.87
2022-12-31T06:00:59.440Z,28.87
2022-12-31T06:03:27.350Z,30.87
2022-12-31T06:05:55.151Z,29.07
2022-12-31T06:08:24.825Z,28.87
2022-12-31T06:10:52.585Z,28.40
2022-12-31T06:13:20.385Z,30.40
2022-12-31T06:15:48.141Z,27.40
2022-12-31T06:18:15.964Z,27.63
2022-12-31T06:20:43.732Z,28.23
2022-12-31T06:23:11.506Z,29.93
2022-12-31T06:25:40.636Z,29.07
2022-12-31T06:28:08.377Z,26.00
2022-12-31T06:30:36.220Z,28.40
2022-12-31T06:33:04.033Z,28.90
2022-12-31T06:35:31.820Z,27.83
2022-12-31T06:37:59.621Z,27.93
2022-12-31T06:40:27.351Z,27.80
2022-12-31T06:43:00.142Z,28.13
2022-12-31T06:45:28.255Z,28.67
2022-12-31T06:47:56.077Z,29.97
2022-12-31T06:50:23.831Z,27.47
2022-12-31T06:52:51.617Z,26.53
2022-12-31T06:55:20.072Z,26.33
2022-12-31T06:57:48.384Z,27.90
2022-12-31T07:00:19.051Z,26.57
2022-12-31T07:03:00.447Z,26.77
2022-12-31T07:05:31.853Z,25.20
2022-12-31T07:08:18.325Z,25.53
2022-12-31T07:10:53.582Z,24.60
2022-12-31T07:13:45.349Z,23.47
2022-12-31T07:16:27.853Z,22.37
2022-12-31T07:18:59.372Z,22.67
2022-12-31T07:21:33.193Z,22.07
2022-12-31T07:24:01.423Z,22.50
2022-12-31T07:26:42.140Z,21.10
2022-12-31T07:29:14.673Z,22.57
2022-12-31T07:31:55.778Z,21.53
2022-12-31T07:34:29.575Z,23.67
2022-12-31T07:37:02.760Z,22.47
2022-12-31T07:39:38.707Z,22.63
2022-12-31T07:42:12.973Z,22.20
2022-12-31T07:44:50.187Z,24.57
2022-12-31T07:47:24.358Z,26.63
2022-12-31T07:49:52.728Z,27.50
2022-12-31T07:52:21.698Z,26.77
2022-12-31T07:54:49.772Z,29.83
2022-12-31T07:57:19.767Z,26.80
2022-12-31T07:59:55.111Z,27.37
2022-12-31T08:02:34.917Z,27.07
2022-12-31T08:05:08.079Z,26.77
2022-12-31T08:07:38.681Z,25.93
2022-12-31T08:10:17.314Z,25.97
2022-12-31T08:12:47.152Z,26.03
2022-12-31T08:15:16.503Z,28.67
2022-12-31T08:17:46.092Z,26.80
2022-12-31T08:20:15.688Z,28.67
2022-12-31T08:23:03.315Z,25.87
2022-12-31T08:25:39.361Z,27.93
2022-12-31T08:28:13.975Z,27.77
2022-12-31T08:30:49.307Z,27.27
2022-12-31T08:33:22.275Z,27.33
2022-12-31T08:36:03.759Z,26.90
2022-12-31T08:38:35.749Z,26.70
2022-12-31T08:41:09.345Z,26.00
2022-12-31T08:43:44.634Z,26.27
2022-12-31T08:46:18.036Z,27.17
2022-12-31T08:48:48.400Z,26.27
2022-12-31T08:51:20.608Z,24.97
2022-12-31T08:53:49.216Z,26.10
2022-12-31T08:56:26.075Z,24.33
2022-12-31T08:59:00.439Z,25.07
2022-12-31T09:01:29.765Z,25.47
2022-12-31T09:04:15.721Z,25.80
2022-12-31T09:06:48.423Z,26.07
2022-12-31T09:09:21.746Z,25.00
2022-12-31T09:11:55.917Z,26.20
2022-12-31T09:14:40.438Z,28.03
2022-12-31T09:17:14.730Z,26.30
2022-12-31T09:19:43.853Z,26.37
2022-12-31T09:22:11.752Z,29.27
2022-12-31T09:24:40.068Z,27.77
2022-12-31T09:27:15.160Z,28.73
2022-12-31T09:29:49.403Z,26.70
2022-12-31T09:32:24.535Z,28.80
2022-12-31T09:34:56.509Z,29.97
2022-12-31T09:37:36.397Z,29.00
2022-12-31T09:40:18.087Z,29.53
2022-12-31T09:43:06.564Z,29.40
2022-12-31T09:45:58.180Z,27.63
2022-12-31T09:48:52.019Z,27.17
2022-12-31T09:51:29.531Z,27.47
2022-12-31T09:54:21.263Z,27.17
2022-12-31T09:56:58.987Z,26.33
2022-12-31T09:59:32.898Z,27.00
2022-12-31T10:02:04.236Z,27.43
2022-12-31T10:04:44.941Z,27.27
2022-12-31T10:07:33.430Z,28.47
2022-12-31T10:10:13.745Z,26.90
2022-12-31T10:13:00.179Z,28.63
2022-12-31T10:15:49.280Z,29.73
2022-12-31T10:18:29.461Z,28.60
2022-12-31T10:21:06.549Z,29.87
2022-12-31T10:24:06.184Z,30.30
2022-12-31T10:26:56.067Z,30.37
2022-12-31T10:29:34.605Z,29.50
2022-12-31T10:32:15.693Z,31.43
2022-12-31T10:34:52.899Z,30.33
2022-12-31T10:37:22.504Z,27.90
2022-12-31T10:39:57.833Z,30.63
2022-12-31T10:42:53.421Z,30.37
2022-12-31T10:46:01.769Z,29.57
2022-12-31T10:49:20.243Z,28.70
2022-12-31T10:52:16.560Z,28.67
2022-12-31T10:55:19.868Z,29.00
2022-12-31T10:58:28.271Z,30.07
2022-12-31T11:01:03.468Z,27.57
2022-12-31T11:04:01.464Z,29.37
2022-12-31T11:06:55.980Z,29.17
2022-12-31T11:10:05.399Z,29.87
2022-12-31T11:12:51.807Z,29.00
2022-12-31T11:15:50.225Z,30.83
2022-12-31T11:18:27.830Z,29.53
2022-12-31T11:21:07.153Z,29.03
2022-12-31T11:23:40.612Z,30.67
2022-12-31T11:26:18.208Z,31.63
2022-12-31T11:28:55.277Z,34.30
2022-12-31T11:31:43.413Z,31.13
2022-12-31T11:34:23.913Z,31.33
2022-12-31T11:37:04.624Z,31.47
2022-12-31T11:39:44.263Z,31.30
2022-12-31T11:42:20.828Z,32.57
2022-12-31T11:44:53.036Z,31.30
2022-12-31T11:47:33.675Z,33.23
2022-12-31T11:50:12.188Z,31.30
2022-12-31T11:52:51.256Z,31.30
2022-12-31T11:55:42.189Z,31.10
2022-12-31T11:58:14.662Z,29.37
2022-12-31T12:00:46.596Z,29.07
2022-12-31T12:03:15.790Z,29.50
2022-12-31T12:05:43.659Z,30.40
2022-12-31T12:08:12.476Z,32.40
2022-12-31T12:10:45.917Z,31.53
2022-12-31T12:13:19.651Z,32.27
2022-12-31T12:15:50.256Z,30.77
2022-12-31T12:18:38.109Z,32.13
2022-12-31T12:21:10.262Z,30.07
2022-12-31T12:23:38.777Z,31.30
2022-12-31T12:26:07.101Z,31.43
2022-12-31T12:28:44.718Z,32.07
2022-12-31T12:31:21.526Z,31.50
2022-12-31T12:33:51.789Z,29.77
2022-12-31T12:36:21.582Z,31.40
2022-12-31T12:38:49.559Z,31.73
2022-12-31T12:41:23.487Z,31.33
2022-12-31T12:43:51.570Z,31.77
2022-12-31T12:46:22.048Z,31.83
2022-12-31T12:48:56.262Z,30.73
2022-12-31T12:51:34.769Z,31.03
2022-12-31T12:57:01.370Z,32.07
2022-12-31T12:59:57.015Z,30.47
2022-12-31T13:03:03.151Z,33.27
2022-12-31T13:05:41.211Z,31.27
2022-12-31T13:08:20.543Z,29.67
2022-12-31T13:10:57.057Z,29.13
2022-12-31T13:13:30.595Z,30.20
2022-12-31T13:16:02.808Z,29.30
2022-12-31T13:18:40.997Z,29.70
2022-12-31T13:21:23.560Z,29.70
2022-12-31T13:23:54.279Z,28.53
2022-12-31T13:26:26.560Z,31.97
2022-12-31T13:28:54.649Z,30.37
2022-12-31T13:31:27.360Z,35.37
2022-12-31T13:33:59.709Z,33.00
2022-12-31T13:36:29.884Z,32.47
2022-12-31T13:38:59.840Z,33.07
2022-12-31T13:41:29.483Z,33.70
2022-12-31T13:44:01.381Z,33.20
2022-12-31T13:46:38.806Z,32.37
2022-12-31T13:49:15.410Z,31.30
2022-12-31T13:51:46.707Z,30.63
2022-12-31T13:54:24.524Z,29.13
2022-12-31T13:56:53.172Z,29.20
2022-12-31T13:59:24.857Z,30.70
2022-12-31T14:01:55.526Z,29.67
2022-12-31T14:04:29.531Z,28.50
2022-12-31T14:07:01.965Z,27.77
2022-12-31T14:09:32.173Z,30.27
2022-12-31T14:12:12.522Z,31.13
2022-12-31T14:14:45.409Z,27.93
2022-12-31T14:17:20.405Z,30.10
2022-12-31T14:20:03.748Z,29.93
2022-12-31T14:22:38.621Z,30.47
2022-12-31T14:25:15.626Z,30.37
2022-12-31T14:27:44.496Z,31.57
2022-12-31T14:30:16.517Z,30.47
2022-12-31T14:32:56.738Z,30.40
2022-12-31T14:35:33.634Z,30.47
2022-12-31T14:38:06.937Z,32.37
2022-12-31T14:40:43.012Z,30.90
2022-12-31T14:43:20.230Z,30.73
2022-12-31T14:45:56.213Z,32.03
2022-12-31T14:48:33.245Z,31.97
2022-12-31T14:51:02.605Z,31.70
2022-12-31T14:53:32.029Z,30.43
2022-12-31T14:56:01.688Z,31.70
2022-12-31T14:58:34.770Z,33.90
2022-12-31T15:01:04.519Z,32.43
2022-12-31T15:03:44.730Z,33.30
2022-12-31T15:06:31.223Z,34.07
2022-12-31T15:09:08.825Z,34.13
2022-12-31T15:11:52.124Z,33.67
2022-12-31T15:14:39.927Z,33.37
2022-12-31T15:17:17.895Z,34.63
2022-12-31T15:20:18.096Z,33.80
2022-12-31T15:22:46.778Z,36.23
2022-12-31T15:25:32.619Z,34.37
2022-12-31T15:28:04.915Z,35.73
2022-12-31T15:30:41.206Z,33.47
2022-12-31T15:33:16.107Z,34.33
2022-12-31T15:35:49.844Z,34.03
2022-12-31T15:38:35.711Z,33.27
2022-12-31T15:41:17.636Z,32.57
2022-12-31T15:43:49.798Z,35.50
2022-12-31T15:46:19.120Z,33.87
2022-12-31T15:48:52.533Z,34.57
2022-12-31T15:51:24.098Z,35.90
2022-12-31T15:53:54.285Z,35.53
2022-12-31T15:56:31.595Z,35.53
2022-12-31T15:59:00.986Z,36.83
2022-12-31T16:01:30.964Z,35.40
2022-12-31T16:04:00.806Z,36.40
2022-12-31T16:06:30.775Z,36.07
2022-12-31T16:08:58.724Z,36.73
2022-12-31T16:11:30.394Z,38.80
2022-12-31T16:13:59.296Z,38.53
2022-12-31T16:16:29.191Z,38.80
2022-12-31T16:18:58.092Z,36.93
2022-12-31T16:21:33.913Z,39.63
2022-12-31T16:24:03.751Z,40.10
2022-12-31T16:26:44.675Z,39.53
2022-12-31T16:29:14.861Z,38.63
2022-12-31T16:31:44.239Z,40.27
2022-12-31T16:34:14.956Z,39.90
2022-12-31T16:36:42.962Z,40.07
2022-12-31T16:39:25.285Z,39.57
2022-12-31T16:42:00.668Z,39.50
2022-12-31T16:44:29.854Z,37.20
2022-12-31T16:46:59.261Z,37.47
2022-12-31T16:49:27.513Z,39.73
2022-12-31T16:51:58.031Z,37.17
2022-12-31T16:54:29.954Z,37.27
2022-12-31T16:57:00.118Z,36.97
2022-12-31T16:59:35.209Z,36.60
2022-12-31T17:02:05.783Z,38.33
2022-12-31T17:04:33.686Z,38.33
2022-12-31T17:07:25.600Z,38.27
2022-12-31T17:10:03.048Z,39.27
2022-12-31T17:12:46.867Z,38.47
2022-12-31T17:15:23.407Z,38.37
2022-12-31T17:17:54.385Z,38.57
2022-12-31T17:20:25.582Z,37.90
2022-12-31T17:22:56.509Z,36.97
2022-12-31T17:25:26.511Z,38.80
2022-12-31T17:27:58.534Z,38.23
2022-12-31T17:30:43.605Z,38.47
2022-12-31T17:33:29.687Z,38.33
2022-12-31T17:35:58.873Z,37.27
2022-12-31T17:38:33.723Z,38.13
2022-12-31T17:41:15.954Z,49.58
2022-12-31T17:43:45.104Z,46.13
2022-12-31T17:46:14.321Z,44.47
2022-12-31T17:48:42.332Z,41.87
2022-12-31T17:51:10.800Z,41.50
2022-12-31T17:53:38.623Z,41.53
2022-12-31T17:56:14.264Z,41.90
2022-12-31T17:58:46.284Z,41.43
2022-12-31T18:01:15.531Z,41.67
2022-12-31T18:03:43.773Z,41.53
2022-12-31T18:06:16.628Z,40.40
2022-12-31T18:08:44.913Z,40.63
2022-12-31T18:11:17.223Z,41.20
2022-12-31T18:13:46.927Z,40.27
2022-12-31T18:16:14.833Z,40.77
2022-12-31T18:18:43.769Z,43.33
2022-12-31T18:21:17.963Z,46.67
2022-12-31T18:23:47.226Z,46.23
2022-12-31T18:26:15.665Z,44.43
2022-12-31T18:28:43.530Z,43.47
2022-12-31T18:31:15.008Z,43.33
2022-12-31T18:33:42.827Z,41.33
2022-12-31T18:36:13.057Z,42.50
2022-12-31T18:38:44.430Z,41.10
2022-12-31T18:41:17.375Z,41.57
2022-12-31T18:43:45.236Z,41.43
2022-12-31T18:46:15.981Z,40.37
2022-12-31T18:48:44.359Z,41.20
2022-12-31T18:51:14.524Z,41.47
2022-12-31T18:53:42.250Z,40.80
2022-12-31T18:56:13.854Z,40.63
2022-12-31T18:58:41.713Z,40.23
2022-12-31T19:01:26.108Z,40.23
2022-12-31T19:03:54.543Z,39.17
2022-12-31T19:06:22.414Z,40.80
2022-12-31T19:08:50.278Z,41.20
2022-12-31T19:11:18.201Z,43.60
2022-12-31T19:13:46.014Z,42.77
2022-12-31T19:16:14.207Z,42.80
2022-12-31T19:18:43.480Z,42.10
2022-12-31T19:21:16.981Z,47.37
2022-12-31T19:23:45.123Z,47.40
2022-12-31T19:26:16.318Z,47.23
2022-12-31T19:28:44.371Z,47.73
2022-12-31T19:31:13.800Z,47.97
2022-12-31T19:33:43.100Z,48.67
2022-12-31T19:36:15.245Z,45.90
2022-12-31T19:38:43.064Z,45.30
2022-12-31T19:41:16.120Z,46.10
2022-12-31T19:43:43.873Z,44.00
2022-12-31T19:46:14.172Z,44.97
2022-12-31T19:48:43.273Z,43.77
2022-12-31T19:51:12.568Z,44.00
2022-12-31T19:53:40.387Z,43.67
2022-12-31T19:56:08.361Z,43.00
2022-12-31T19:58:36.293Z,46.83
2022-12-31T20:01:04.138Z,45.43
2022-12-31T20:03:32.899Z,44.50
2022-12-31T20:06:07.016Z,46.83
2022-12-31T20:08:35.182Z,45.30
2022-12-31T20:11:08.608Z,45.57
2022-12-31T20:13:36.571Z,44.27
2022-12-31T20:16:06.713Z,43.17
2022-12-31T20:18:34.559Z,43.63
2022-12-31T20:21:02.326Z,45.30
2022-12-31T20:23:34.082Z,41.53
2022-12-31T20:26:02.536Z,45.90
2022-12-31T20:28:30.608Z,42.67
2022-12-31T20:30:58.472Z,41.90
2022-12-31T20:33:26.305Z,42.10
2022-12-31T20:35:54.081Z,44.97
2022-12-31T20:38:21.917Z,43.17
2022-12-31T20:40:51.089Z,45.53
2022-12-31T20:43:18.872Z,46.03
2022-12-31T20:45:47.798Z,42.73
2022-12-31T20:48:15.554Z,43.80
2022-12-31T20:50:43.293Z,43.90
2022-12-31T20:53:11.098Z,44.27
2022-12-31T20:55:39.088Z,44.13
2022-12-31T20:58:08.257Z,45.40
2022-12-31T21:00:36.140Z,43.33
2022-12-31T21:03:14.451Z,45.10
2022-12-31T21:05:52.306Z,43.23
2022-12-31T21:08:20.510Z,42.70
2022-12-31T21:10:48.871Z,43.80
2022-12-31T21:13:18.786Z,45.03
2022-12-31T21:15:48.605Z,46.50
2022-12-31T21:18:16.793Z,49.70
2022-12-31T21:20:47.339Z,48.90
2022-12-31T21:23:15.123Z,49.83
2022-12-31T21:25:43.010Z,51.97
2022-12-31T21:28:11.098Z,51.57
2022-12-31T21:30:40.941Z,50.03
2022-12-31T21:33:09.185Z,48.90
2022-12-31T21:35:53.169Z,48.33
2022-12-31T21:38:21.668Z,48.13
2022-12-31T21:40:49.883Z,44.33
2022-12-31T21:43:17.713Z,43.77
2022-12-31T21:45:46.893Z,44.80
2022-12-31T21:48:22.255Z,45.00
2022-12-31T21:50:51.843Z,44.97
2022-12-31T21:53:24.770Z,45.43
2022-12-31T21:56:11.492Z,48.00
2022-12-31T21:58:40.452Z,46.23
2022-12-31T22:01:29.417Z,44.00
2022-12-31T22:03:57.208Z,48.47
2022-12-31T22:06:25.593Z,47.30
2022-12-31T22:08:54.890Z,45.57
2022-12-31T22:11:25.649Z,47.37
2022-12-31T22:13:54.209Z,49.83
2022-12-31T22:16:23.865Z,48.30
2022-12-31T22:18:51.765Z,46.80
2022-12-31T22:21:21.157Z,48.50
2022-12-31T22:23:50.853Z,47.13
2022-12-31T22:26:20.002Z,50.33
2022-12-31T22:28:48.411Z,47.67
2022-12-31T22:31:18.047Z,48.63
2022-12-31T22:33:47.852Z,50.50
2022-12-31T22:36:17.483Z,51.57
2022-12-31T22:38:45.813Z,51.50
2022-12-31T22:41:15.235Z,53.43
2022-12-31T22:43:45.697Z,53.50
2022-12-31T22:46:14.883Z,56.27
2022-12-31T22:48:44.803Z,55.47
2022-12-31T22:51:14.636Z,56.50
2022-12-31T22:53:43.575Z,58.03
2022-12-31T22:56:14.818Z,69.13
2022-12-31T22:58:43.233Z,76.37
2022-12-31T23:01:16.937Z,82.77
2022-12-31T23:03:44.819Z,78.27
2022-12-31T23:06:14.085Z,73.83
2022-12-31T23:08:41.874Z,76.30
2022-12-31T23:11:09.632Z,112.40
2022-12-31T23:13:57.088Z,132.73
2022-12-31T23:16:42.410Z,119.80
2022-12-31T23:19:27.735Z,119.37
2022-12-31T23:22:14.108Z,100.87
2022-12-31T23:24:42.211Z,89.47
2022-12-31T23:27:10.590Z,86.70
2022-12-31T23:29:46.057Z,92.10
2022-12-31T23:32:15.284Z,97.80
2022-12-31T23:34:44.354Z,109.47
2022-12-31T23:37:13.938Z,124.63
2022-12-31T23:39:41.971Z,127.57
2022-12-31T23:42:10.076Z,130.17
2022-12-31T23:44:37.834Z,131.47
2022-12-31T23:47:05.730Z,123.33
2022-12-31T23:49:33.516Z,117.87
2022-12-31T23:52:01.326Z,115.70
2022-12-31T23:54:30.727Z,115.30
2022-12-31T23:56:58.514Z,115.50
2022-12-31T23:59:26.272Z,112.30
